METAR Data
IDs: Format: Raw Decoded Include TAF

Data at: 1443 UTC 21 Apr 2021

METAR for:KCCY (Charles City/NE Iowa, IA, US)
Text:KCCY 211435Z AUTO 32012G17KT 10SM CLR 02/M09 A3018 RMK AO2
Temperature: 2.0°C ( 36°F)
Dewpoint: -9.0°C ( 16°F) [RH = 44%]
Pressure (altimeter):30.18 inches Hg (1022.1 mb)
Winds:from the NW (320 degrees) at 14 MPH (12 knots; 6.2 m/s) gusting to 20 MPH (17 knots; 8.7 m/s)
Visibility:10 or more sm (16+ km)
Ceiling:at least 12,000 feet AGL
Clouds:sky clear below 12,000 feet AGL
QC Flag:automated observation with no human augmentation